sensor_id;sensor_type;location;lat;lon;timestamp;temperature;humidity
21906;DHT22;11117;48.644;9.006;2023-02-10T00:01:08;-3.20;99.90
21906;DHT22;11117;48.644;9.006;2023-02-10T00:03:34;-3.20;99.90
21906;DHT22;11117;48.644;9.006;2023-02-10T00:06:00;-3.20;99.90
21906;DHT22;11117;48.644;9.006;2023-02-10T00:08:27;-3.20;99.90
21906;DHT22;11117;48.644;9.006;2023-02-10T00:10:57;-3.20;99.90
21906;DHT22;11117;48.644;9.006;2023-02-10T00:13:22;-3.30;99.90
21906;DHT22;11117;48.644;9.006;2023-02-10T00:15:48;-3.30;99.90
21906;DHT22;11117;48.644;9.006;2023-02-10T00:18:13;-3.20;99.90
21906;DHT22;11117;48.644;9.006;2023-02-10T00:20:39;-3.20;99.90
21906;DHT22;11117;48.644;9.006;2023-02-10T00:23:04;-3.10;99.90
21906;DHT22;11117;48.644;9.006;2023-02-10T00:25:30;-3.10;99.90
21906;DHT22;11117;48.644;9.006;2023-02-10T00:27:56;-3.10;99.90
21906;DHT22;11117;48.644;9.006;2023-02-10T00:30:21;-3.30;99.90
21906;DHT22;11117;48.644;9.006;2023-02-10T00:32:47;-3.40;99.90
21906;DHT22;11117;48.644;9.006;2023-02-10T00:35:12;-3.30;99.90
21906;DHT22;11117;48.644;9.006;2023-02-10T00:37:38;-3.50;99.90
21906;DHT22;11117;48.644;9.006;2023-02-10T00:40:03;-3.40;99.90
21906;DHT22;11117;48.644;9.006;2023-02-10T00:42:29;-3.50;99.90
21906;DHT22;11117;48.644;9.006;2023-02-10T00:44:54;-3.60;99.90
21906;DHT22;11117;48.644;9.006;2023-02-10T00:47:20;-3.60;99.90
21906;DHT22;11117;48.644;9.006;2023-02-10T00:49:45;-3.60;99.90
21906;DHT22;11117;48.644;9.006;2023-02-10T00:52:11;-3.60;99.90
21906;DHT22;11117;48.644;9.006;2023-02-10T00:54:37;-3.70;99.90
21906;DHT22;11117;48.644;9.006;2023-02-10T00:57:02;-3.60;99.90
21906;DHT22;11117;48.644;9.006;2023-02-10T00:59:28;-3.70;99.90
21906;DHT22;11117;48.644;9.006;2023-02-10T01:01:53;-3.60;99.90
21906;DHT22;11117;48.644;9.006;2023-02-10T01:04:19;-3.50;99.90
21906;DHT22;11117;48.644;9.006;2023-02-10T01:06:44;-3.50;99.90
21906;DHT22;11117;48.644;9.006;2023-02-10T01:09:10;-3.50;99.90
21906;DHT22;11117;48.644;9.006;2023-02-10T01:11:36;-3.50;99.90
21906;DHT22;11117;48.644;9.006;2023-02-10T01:14:02;-3.60;99.90
21906;DHT22;11117;48.644;9.006;2023-02-10T01:16:28;-3.70;99.90
21906;DHT22;11117;48.644;9.006;2023-02-10T01:18:53;-3.70;99.90
21906;DHT22;11117;48.644;9.006;2023-02-10T01:21:20;-3.70;99.90
21906;DHT22;11117;48.644;9.006;2023-02-10T01:23:47;-3.70;99.90
21906;DHT22;11117;48.644;9.006;2023-02-10T01:26:13;-3.70;99.90
21906;DHT22;11117;48.644;9.006;2023-02-10T01:28:39;-3.80;99.90
21906;DHT22;11117;48.644;9.006;2023-02-10T01:31:11;-3.80;99.90
21906;DHT22;11117;48.644;9.006;2023-02-10T01:33:37;-3.90;99.90
21906;DHT22;11117;48.644;9.006;2023-02-10T01:36:14;-3.90;99.90
21906;DHT22;11117;48.644;9.006;2023-02-10T01:38:41;-4.00;99.90
21906;DHT22;11117;48.644;9.006;2023-02-10T01:41:08;-3.90;99.90
21906;DHT22;11117;48.644;9.006;2023-02-10T01:43:53;-3.80;99.90
21906;DHT22;11117;48.644;9.006;2023-02-10T01:46:19;-3.90;99.90
21906;DHT22;11117;48.644;9.006;2023-02-10T01:48:45;-3.90;99.90
21906;DHT22;11117;48.644;9.006;2023-02-10T01:51:11;-3.90;99.90
21906;DHT22;11117;48.644;9.006;2023-02-10T01:53:38;-3.90;99.90
21906;DHT22;11117;48.644;9.006;2023-02-10T01:56:04;-4.00;99.90
21906;DHT22;11117;48.644;9.006;2023-02-10T01:58:32;-4.00;99.90
21906;DHT22;11117;48.644;9.006;2023-02-10T02:00:59;-4.00;99.90
21906;DHT22;11117;48.644;9.006;2023-02-10T02:03:25;-4.20;99.90
21906;DHT22;11117;48.644;9.006;2023-02-10T02:05:51;-4.20;99.90
21906;DHT22;11117;48.644;9.006;2023-02-10T02:08:19;-4.30;99.90
21906;DHT22;11117;48.644;9.006;2023-02-10T02:19:00;-4.60;99.90
21906;DHT22;11117;48.644;9.006;2023-02-10T02:37:12;-4.90;99.90
21906;DHT22;11117;48.644;9.006;2023-02-10T02:39:41;-4.90;99.90
21906;DHT22;11117;48.644;9.006;2023-02-10T02:42:18;-4.80;99.90
21906;DHT22;11117;48.644;9.006;2023-02-10T02:44:47;-4.80;99.90
21906;DHT22;11117;48.644;9.006;2023-02-10T02:47:22;-4.80;99.90
21906;DHT22;11117;48.644;9.006;2023-02-10T02:50:57;-4.80;99.90
21906;DHT22;11117;48.644;9.006;2023-02-10T02:53:12;-4.70;99.90
21906;DHT22;11117;48.644;9.006;2023-02-10T02:58:34;-4.70;99.90
21906;DHT22;11117;48.644;9.006;2023-02-10T03:01:09;-4.70;99.90
21906;DHT22;11117;48.644;9.006;2023-02-10T03:03:36;-4.80;99.90
21906;DHT22;11117;48.644;9.006;2023-02-10T03:06:03;-4.80;99.90
21906;DHT22;11117;48.644;9.006;2023-02-10T03:08:30;-4.80;99.90
21906;DHT22;11117;48.644;9.006;2023-02-10T03:10:59;-4.80;99.90
21906;DHT22;11117;48.644;9.006;2023-02-10T03:13:25;-4.80;99.90
21906;DHT22;11117;48.644;9.006;2023-02-10T03:15:50;-4.80;99.90
21906;DHT22;11117;48.644;9.006;2023-02-10T03:18:16;-4.80;99.90
21906;DHT22;11117;48.644;9.006;2023-02-10T03:20:41;-4.70;99.90
21906;DHT22;11117;48.644;9.006;2023-02-10T03:23:07;-4.70;99.90
21906;DHT22;11117;48.644;9.006;2023-02-10T03:25:33;-4.80;99.90
21906;DHT22;11117;48.644;9.006;2023-02-10T03:27:58;-4.70;99.90
21906;DHT22;11117;48.644;9.006;2023-02-10T03:30:25;-4.70;99.90
21906;DHT22;11117;48.644;9.006;2023-02-10T03:32:50;-4.80;99.90
21906;DHT22;11117;48.644;9.006;2023-02-10T03:35:16;-4.80;99.90
21906;DHT22;11117;48.644;9.006;2023-02-10T03:37:41;-4.80;99.90
21906;DHT22;11117;48.644;9.006;2023-02-10T03:40:07;-4.70;99.90
21906;DHT22;11117;48.644;9.006;2023-02-10T03:42:33;-4.60;99.90
21906;DHT22;11117;48.644;9.006;2023-02-10T03:44:58;-4.60;99.90
21906;DHT22;11117;48.644;9.006;2023-02-10T03:47:24;-4.60;99.90
21906;DHT22;11117;48.644;9.006;2023-02-10T03:49:49;-4.50;99.90
21906;DHT22;11117;48.644;9.006;2023-02-10T03:52:15;-4.40;99.90
21906;DHT22;11117;48.644;9.006;2023-02-10T03:54:41;-4.40;99.90
21906;DHT22;11117;48.644;9.006;2023-02-10T03:57:06;-4.40;99.90
21906;DHT22;11117;48.644;9.006;2023-02-10T03:59:32;-4.40;99.90
21906;DHT22;11117;48.644;9.006;2023-02-10T04:01:58;-4.40;99.90
21906;DHT22;11117;48.644;9.006;2023-02-10T04:04:23;-4.40;99.90
21906;DHT22;11117;48.644;9.006;2023-02-10T04:06:49;-4.30;99.90
21906;DHT22;11117;48.644;9.006;2023-02-10T04:09:15;-4.30;99.90
21906;DHT22;11117;48.644;9.006;2023-02-10T04:11:40;-4.30;99.90
21906;DHT22;11117;48.644;9.006;2023-02-10T04:14:06;-4.30;99.90
21906;DHT22;11117;48.644;9.006;2023-02-10T04:16:32;-4.30;99.90
21906;DHT22;11117;48.644;9.006;2023-02-10T04:18:57;-4.20;99.90
21906;DHT22;11117;48.644;9.006;2023-02-10T04:21:23;-4.20;99.90
21906;DHT22;11117;48.644;9.006;2023-02-10T04:23:48;-4.20;99.90
21906;DHT22;11117;48.644;9.006;2023-02-10T04:26:14;-4.20;99.90
21906;DHT22;11117;48.644;9.006;2023-02-10T04:28:39;-4.20;99.90
21906;DHT22;11117;48.644;9.006;2023-02-10T04:31:05;-4.30;99.90
21906;DHT22;11117;48.644;9.006;2023-02-10T04:33:31;-4.30;99.90
21906;DHT22;11117;48.644;9.006;2023-02-10T04:35:56;-4.30;99.90
21906;DHT22;11117;48.644;9.006;2023-02-10T04:38:22;-4.30;99.90
21906;DHT22;11117;48.644;9.006;2023-02-10T04:40:48;-4.30;99.90
21906;DHT22;11117;48.644;9.006;2023-02-10T04:43:13;-4.30;99.90
21906;DHT22;11117;48.644;9.006;2023-02-10T04:45:39;-4.30;99.90
21906;DHT22;11117;48.644;9.006;2023-02-10T04:48:05;-4.30;99.90
21906;DHT22;11117;48.644;9.006;2023-02-10T04:50:31;-4.40;99.90
21906;DHT22;11117;48.644;9.006;2023-02-10T04:52:57;-4.30;99.90
21906;DHT22;11117;48.644;9.006;2023-02-10T04:55:22;-4.40;99.90
21906;DHT22;11117;48.644;9.006;2023-02-10T04:57:48;-4.40;99.90
21906;DHT22;11117;48.644;9.006;2023-02-10T05:00:14;-4.50;99.90
21906;DHT22;11117;48.644;9.006;2023-02-10T05:02:40;-4.40;99.90
21906;DHT22;11117;48.644;9.006;2023-02-10T05:05:05;-4.40;99.90
21906;DHT22;11117;48.644;9.006;2023-02-10T05:07:31;-4.50;99.90
21906;DHT22;11117;48.644;9.006;2023-02-10T05:09:57;-4.50;99.90
21906;DHT22;11117;48.644;9.006;2023-02-10T05:12:22;-4.60;99.90
21906;DHT22;11117;48.644;9.006;2023-02-10T05:14:48;-4.60;99.90
21906;DHT22;11117;48.644;9.006;2023-02-10T05:17:13;-4.50;99.90
21906;DHT22;11117;48.644;9.006;2023-02-10T05:19:39;-4.60;99.90
21906;DHT22;11117;48.644;9.006;2023-02-10T05:22:04;-4.60;99.90
21906;DHT22;11117;48.644;9.006;2023-02-10T05:24:30;-4.60;99.90
21906;DHT22;11117;48.644;9.006;2023-02-10T05:26:55;-4.70;99.90
21906;DHT22;11117;48.644;9.006;2023-02-10T05:29:21;-4.70;99.90
21906;DHT22;11117;48.644;9.006;2023-02-10T05:31:46;-4.70;99.90
21906;DHT22;11117;48.644;9.006;2023-02-10T05:34:12;-4.80;99.90
21906;DHT22;11117;48.644;9.006;2023-02-10T05:36:37;-4.80;99.90
21906;DHT22;11117;48.644;9.006;2023-02-10T05:39:03;-4.80;99.90
21906;DHT22;11117;48.644;9.006;2023-02-10T05:41:28;-4.80;99.90
21906;DHT22;11117;48.644;9.006;2023-02-10T05:43:54;-4.90;99.90
21906;DHT22;11117;48.644;9.006;2023-02-10T05:46:20;-5.00;99.90
21906;DHT22;11117;48.644;9.006;2023-02-10T05:48:45;-5.00;99.90
21906;DHT22;11117;48.644;9.006;2023-02-10T05:51:11;-5.00;99.90
21906;DHT22;11117;48.644;9.006;2023-02-10T05:53:36;-5.10;99.90
21906;DHT22;11117;48.644;9.006;2023-02-10T05:56:02;-5.10;99.90
21906;DHT22;11117;48.644;9.006;2023-02-10T05:58:27;-5.10;99.90
21906;DHT22;11117;48.644;9.006;2023-02-10T06:00:53;-5.10;99.90
21906;DHT22;11117;48.644;9.006;2023-02-10T06:03:18;-5.10;99.90
21906;DHT22;11117;48.644;9.006;2023-02-10T06:05:44;-5.20;99.90
21906;DHT22;11117;48.644;9.006;2023-02-10T06:08:09;-5.20;99.90
21906;DHT22;11117;48.644;9.006;2023-02-10T06:10:36;-5.20;99.90
21906;DHT22;11117;48.644;9.006;2023-02-10T06:13:02;-5.30;99.90
21906;DHT22;11117;48.644;9.006;2023-02-10T06:15:27;-5.30;99.90
21906;DHT22;11117;48.644;9.006;2023-02-10T06:17:53;-5.30;99.90
21906;DHT22;11117;48.644;9.006;2023-02-10T06:20:18;-5.30;99.90
21906;DHT22;11117;48.644;9.006;2023-02-10T06:22:44;-5.30;99.90
21906;DHT22;11117;48.644;9.006;2023-02-10T06:25:09;-5.20;99.90
21906;DHT22;11117;48.644;9.006;2023-02-10T06:27:35;-5.20;99.90
21906;DHT22;11117;48.644;9.006;2023-02-10T06:30:00;-5.20;99.90
21906;DHT22;11117;48.644;9.006;2023-02-10T06:32:26;-5.20;99.90
21906;DHT22;11117;48.644;9.006;2023-02-10T06:34:51;-5.20;99.90
21906;DHT22;11117;48.644;9.006;2023-02-10T06:37:17;-5.20;99.90
21906;DHT22;11117;48.644;9.006;2023-02-10T06:39:42;-5.20;99.90
21906;DHT22;11117;48.644;9.006;2023-02-10T06:42:08;-5.20;99.90
21906;DHT22;11117;48.644;9.006;2023-02-10T06:44:33;-5.30;99.90
21906;DHT22;11117;48.644;9.006;2023-02-10T06:46:59;-5.30;99.90
21906;DHT22;11117;48.644;9.006;2023-02-10T06:49:25;-5.30;99.90
21906;DHT22;11117;48.644;9.006;2023-02-10T06:51:50;-5.30;99.90
21906;DHT22;11117;48.644;9.006;2023-02-10T06:54:16;-5.30;99.90
21906;DHT22;11117;48.644;9.006;2023-02-10T06:56:41;-5.30;99.90
21906;DHT22;11117;48.644;9.006;2023-02-10T06:59:07;-5.20;99.90
21906;DHT22;11117;48.644;9.006;2023-02-10T07:01:32;-5.20;99.90
21906;DHT22;11117;48.644;9.006;2023-02-10T07:03:58;-5.20;99.90
21906;DHT22;11117;48.644;9.006;2023-02-10T07:06:23;-5.20;99.90
21906;DHT22;11117;48.644;9.006;2023-02-10T07:08:49;-5.20;99.90
21906;DHT22;11117;48.644;9.006;2023-02-10T07:11:14;-5.10;99.90
21906;DHT22;11117;48.644;9.006;2023-02-10T07:13:40;-5.00;99.90
21906;DHT22;11117;48.644;9.006;2023-02-10T07:16:05;-4.90;99.90
21906;DHT22;11117;48.644;9.006;2023-02-10T07:18:31;-4.80;99.90
21906;DHT22;11117;48.644;9.006;2023-02-10T07:20:56;-4.80;99.90
21906;DHT22;11117;48.644;9.006;2023-02-10T07:23:22;-4.70;99.90
21906;DHT22;11117;48.644;9.006;2023-02-10T07:25:48;-4.60;99.90
21906;DHT22;11117;48.644;9.006;2023-02-10T07:28:13;-4.60;99.90
21906;DHT22;11117;48.644;9.006;2023-02-10T07:30:39;-4.50;99.90
21906;DHT22;11117;48.644;9.006;2023-02-10T07:33:04;-4.40;99.90
21906;DHT22;11117;48.644;9.006;2023-02-10T07:35:30;-4.30;99.90
21906;DHT22;11117;48.644;9.006;2023-02-10T07:37:55;-4.20;99.90
21906;DHT22;11117;48.644;9.006;2023-02-10T07:40:21;-4.20;99.90
21906;DHT22;11117;48.644;9.006;2023-02-10T07:42:46;-4.20;99.90
21906;DHT22;11117;48.644;9.006;2023-02-10T07:45:12;-4.10;99.90
21906;DHT22;11117;48.644;9.006;2023-02-10T07:47:37;-4.00;99.90
21906;DHT22;11117;48.644;9.006;2023-02-10T07:50:03;-3.80;99.90
21906;DHT22;11117;48.644;9.006;2023-02-10T07:52:29;-3.70;99.90
21906;DHT22;11117;48.644;9.006;2023-02-10T07:54:54;-3.60;99.90
21906;DHT22;11117;48.644;9.006;2023-02-10T07:57:20;-3.40;99.90
21906;DHT22;11117;48.644;9.006;2023-02-10T07:59:45;-3.30;99.90
21906;DHT22;11117;48.644;9.006;2023-02-10T08:02:11;-3.10;99.90
21906;DHT22;11117;48.644;9.006;2023-02-10T08:04:36;-3.00;99.90
21906;DHT22;11117;48.644;9.006;2023-02-10T08:07:02;-2.80;99.90
21906;DHT22;11117;48.644;9.006;2023-02-10T08:09:28;-2.70;99.90
21906;DHT22;11117;48.644;9.006;2023-02-10T08:11:54;-2.50;99.90
21906;DHT22;11117;48.644;9.006;2023-02-10T08:14:19;-2.40;99.90
21906;DHT22;11117;48.644;9.006;2023-02-10T08:16:45;-2.30;99.90
21906;DHT22;11117;48.644;9.006;2023-02-10T08:19:10;-2.20;99.90
21906;DHT22;11117;48.644;9.006;2023-02-10T08:21:36;-2.20;99.90
21906;DHT22;11117;48.644;9.006;2023-02-10T08:24:02;-2.00;99.90
21906;DHT22;11117;48.644;9.006;2023-02-10T08:26:27;-1.80;99.90
21906;DHT22;11117;48.644;9.006;2023-02-10T08:28:53;-1.70;99.90
21906;DHT22;11117;48.644;9.006;2023-02-10T08:31:18;-1.70;99.90
21906;DHT22;11117;48.644;9.006;2023-02-10T08:33:44;-1.50;99.90
21906;DHT22;11117;48.644;9.006;2023-02-10T08:36:12;-1.40;99.90
21906;DHT22;11117;48.644;9.006;2023-02-10T08:38:38;-1.30;99.90
21906;DHT22;11117;48.644;9.006;2023-02-10T08:41:04;-1.20;99.90
21906;DHT22;11117;48.644;9.006;2023-02-10T08:43:30;-1.00;99.90
21906;DHT22;11117;48.644;9.006;2023-02-10T08:45:59;-1.00;99.90
21906;DHT22;11117;48.644;9.006;2023-02-10T08:48:26;-0.90;99.90
21906;DHT22;11117;48.644;9.006;2023-02-10T08:50:52;-0.80;99.90
21906;DHT22;11117;48.644;9.006;2023-02-10T08:53:18;-0.60;99.90
21906;DHT22;11117;48.644;9.006;2023-02-10T08:55:43;-0.50;99.90
21906;DHT22;11117;48.644;9.006;2023-02-10T08:58:09;-0.20;99.90
21906;DHT22;11117;48.644;9.006;2023-02-10T09:00:34;0.00;99.90
21906;DHT22;11117;48.644;9.006;2023-02-10T09:03:00;0.10;99.90
21906;DHT22;11117;48.644;9.006;2023-02-10T09:05:26;0.20;99.90
21906;DHT22;11117;48.644;9.006;2023-02-10T09:07:52;0.20;99.90
21906;DHT22;11117;48.644;9.006;2023-02-10T09:10:18;0.20;99.90
21906;DHT22;11117;48.644;9.006;2023-02-10T09:12:43;0.30;99.90
21906;DHT22;11117;48.644;9.006;2023-02-10T09:15:10;0.40;99.90
21906;DHT22;11117;48.644;9.006;2023-02-10T09:17:35;0.50;99.90
21906;DHT22;11117;48.644;9.006;2023-02-10T09:20:01;0.60;99.90
21906;DHT22;11117;48.644;9.006;2023-02-10T09:22:26;0.90;99.90
21906;DHT22;11117;48.644;9.006;2023-02-10T09:24:52;1.20;99.90
21906;DHT22;11117;48.644;9.006;2023-02-10T09:27:19;1.50;99.90
21906;DHT22;11117;48.644;9.006;2023-02-10T09:29:45;1.80;99.90
21906;DHT22;11117;48.644;9.006;2023-02-10T09:32:11;2.00;99.90
21906;DHT22;11117;48.644;9.006;2023-02-10T09:34:37;2.20;99.90
21906;DHT22;11117;48.644;9.006;2023-02-10T09:37:03;2.30;99.90
21906;DHT22;11117;48.644;9.006;2023-02-10T09:39:30;2.60;99.90
21906;DHT22;11117;48.644;9.006;2023-02-10T09:44:33;3.00;99.90
21906;DHT22;11117;48.644;9.006;2023-02-10T09:55:30;2.60;99.90
21906;DHT22;11117;48.644;9.006;2023-02-10T10:00:31;2.70;99.90
21906;DHT22;11117;48.644;9.006;2023-02-10T10:02:58;2.80;99.90
21906;DHT22;11117;48.644;9.006;2023-02-10T10:11:32;3.30;99.90
21906;DHT22;11117;48.644;9.006;2023-02-10T10:14:01;3.60;99.90
21906;DHT22;11117;48.644;9.006;2023-02-10T10:20:02;3.30;99.90
21906;DHT22;11117;48.644;9.006;2023-02-10T10:22:36;3.40;99.90
21906;DHT22;11117;48.644;9.006;2023-02-10T10:30:44;4.10;99.90
21906;DHT22;11117;48.644;9.006;2023-02-10T10:33:22;4.30;99.90
21906;DHT22;11117;48.644;9.006;2023-02-10T10:35:48;4.10;99.90
21906;DHT22;11117;48.644;9.006;2023-02-10T10:38:20;4.50;99.90
21906;DHT22;11117;48.644;9.006;2023-02-10T10:40:47;4.70;99.90
21906;DHT22;11117;48.644;9.006;2023-02-10T10:43:55;4.60;99.90
21906;DHT22;11117;48.644;9.006;2023-02-10T10:46:47;4.80;99.90
21906;DHT22;11117;48.644;9.006;2023-02-10T10:49:14;4.90;99.90
21906;DHT22;11117;48.644;9.006;2023-02-10T10:51:40;5.10;99.90
21906;DHT22;11117;48.644;9.006;2023-02-10T10:54:06;4.90;99.90
21906;DHT22;11117;48.644;9.006;2023-02-10T10:56:40;5.00;99.90
21906;DHT22;11117;48.644;9.006;2023-02-10T10:59:27;4.80;99.90
21906;DHT22;11117;48.644;9.006;2023-02-10T11:01:54;4.70;99.90
21906;DHT22;11117;48.644;9.006;2023-02-10T11:04:22;4.80;99.90
21906;DHT22;11117;48.644;9.006;2023-02-10T11:06:50;4.90;99.90
21906;DHT22;11117;48.644;9.006;2023-02-10T11:09:33;4.90;99.90
21906;DHT22;11117;48.644;9.006;2023-02-10T11:12:05;4.80;99.90
21906;DHT22;11117;48.644;9.006;2023-02-10T11:14:39;4.80;98.90
21906;DHT22;11117;48.644;9.006;2023-02-10T11:17:15;4.90;98.40
21906;DHT22;11117;48.644;9.006;2023-02-10T11:19:53;5.10;99.40
21906;DHT22;11117;48.644;9.006;2023-02-10T11:22:21;5.40;99.80
21906;DHT22;11117;48.644;9.006;2023-02-10T11:24:52;5.30;98.10
21906;DHT22;11117;48.644;9.006;2023-02-10T11:27:18;5.40;97.10
21906;DHT22;11117;48.644;9.006;2023-02-10T11:29:52;5.40;97.10
21906;DHT22;11117;48.644;9.006;2023-02-10T11:32:21;5.50;96.80
21906;DHT22;11117;48.644;9.006;2023-02-10T11:34:48;5.50;95.90
21906;DHT22;11117;48.644;9.006;2023-02-10T11:39:54;5.90;93.50
21906;DHT22;11117;48.644;9.006;2023-02-10T11:42:26;5.90;93.10
21906;DHT22;11117;48.644;9.006;2023-02-10T11:44:56;6.00;93.40
21906;DHT22;11117;48.644;9.006;2023-02-10T11:47:23;6.00;93.30
21906;DHT22;11117;48.644;9.006;2023-02-10T11:49:50;6.10;94.30
21906;DHT22;11117;48.644;9.006;2023-02-10T11:52:21;6.30;95.20
21906;DHT22;11117;48.644;9.006;2023-02-10T11:54:48;6.40;94.80
21906;DHT22;11117;48.644;9.006;2023-02-10T11:57:36;6.50;94.30
21906;DHT22;11117;48.644;9.006;2023-02-10T12:00:35;6.60;94.40
21906;DHT22;11117;48.644;9.006;2023-02-10T12:11:01;6.90;93.20
21906;DHT22;11117;48.644;9.006;2023-02-10T12:19:12;6.70;94.30
21906;DHT22;11117;48.644;9.006;2023-02-10T12:27:57;7.00;93.40
21906;DHT22;11117;48.644;9.006;2023-02-10T12:30:30;7.00;93.60
21906;DHT22;11117;48.644;9.006;2023-02-10T12:44:22;6.50;91.40
21906;DHT22;11117;48.644;9.006;2023-02-10T12:52:44;6.50;91.80
21906;DHT22;11117;48.644;9.006;2023-02-10T12:55:19;6.60;92.00
21906;DHT22;11117;48.644;9.006;2023-02-10T12:57:51;6.80;91.60
21906;DHT22;11117;48.644;9.006;2023-02-10T13:00:39;6.60;91.20
21906;DHT22;11117;48.644;9.006;2023-02-10T13:03:13;6.40;91.10
21906;DHT22;11117;48.644;9.006;2023-02-10T13:08:45;6.80;91.40
21906;DHT22;11117;48.644;9.006;2023-02-10T13:11:43;6.90;90.70
21906;DHT22;11117;48.644;9.006;2023-02-10T13:14:25;6.90;90.90
21906;DHT22;11117;48.644;9.006;2023-02-10T13:16:54;6.90;90.30
21906;DHT22;11117;48.644;9.006;2023-02-10T13:19:23;6.60;88.80
21906;DHT22;11117;48.644;9.006;2023-02-10T13:34:01;6.50;89.30
21906;DHT22;11117;48.644;9.006;2023-02-10T13:36:29;6.70;87.80
21906;DHT22;11117;48.644;9.006;2023-02-10T13:39:17;6.80;87.30
21906;DHT22;11117;48.644;9.006;2023-02-10T13:41:46;6.60;85.30
21906;DHT22;11117;48.644;9.006;2023-02-10T13:44:30;6.60;84.50
21906;DHT22;11117;48.644;9.006;2023-02-10T13:47:11;6.30;85.00
21906;DHT22;11117;48.644;9.006;2023-02-10T13:53:00;6.00;83.60
21906;DHT22;11117;48.644;9.006;2023-02-10T14:00:52;6.10;84.20
21906;DHT22;11117;48.644;9.006;2023-02-10T14:03:26;6.10;84.00
21906;DHT22;11117;48.644;9.006;2023-02-10T14:06:05;6.10;83.80
21906;DHT22;11117;48.644;9.006;2023-02-10T14:08:51;6.10;83.50
21906;DHT22;11117;48.644;9.006;2023-02-10T14:13:44;6.20;83.10
21906;DHT22;11117;48.644;9.006;2023-02-10T14:18:39;6.40;83.60
21906;DHT22;11117;48.644;9.006;2023-02-10T14:21:11;6.50;82.30
21906;DHT22;11117;48.644;9.006;2023-02-10T14:23:39;6.50;83.60
21906;DHT22;11117;48.644;9.006;2023-02-10T14:26:28;6.60;82.40
21906;DHT22;11117;48.644;9.006;2023-02-10T14:28:57;6.30;82.70
21906;DHT22;11117;48.644;9.006;2023-02-10T14:31:28;6.00;82.60
21906;DHT22;11117;48.644;9.006;2023-02-10T14:33:57;6.10;82.90
21906;DHT22;11117;48.644;9.006;2023-02-10T14:36:23;6.10;83.50
21906;DHT22;11117;48.644;9.006;2023-02-10T14:38:51;6.30;82.50
21906;DHT22;11117;48.644;9.006;2023-02-10T14:41:17;6.30;83.20
21906;DHT22;11117;48.644;9.006;2023-02-10T14:43:43;6.40;82.30
21906;DHT22;11117;48.644;9.006;2023-02-10T14:46:17;6.30;82.20
21906;DHT22;11117;48.644;9.006;2023-02-10T14:48:43;6.20;82.40
21906;DHT22;11117;48.644;9.006;2023-02-10T14:51:21;6.20;83.10
21906;DHT22;11117;48.644;9.006;2023-02-10T14:53:47;6.10;83.60
21906;DHT22;11117;48.644;9.006;2023-02-10T14:56:26;6.40;84.80
21906;DHT22;11117;48.644;9.006;2023-02-10T14:58:53;6.30;83.10
21906;DHT22;11117;48.644;9.006;2023-02-10T15:01:33;6.30;83.00
21906;DHT22;11117;48.644;9.006;2023-02-10T15:04:00;6.50;84.40
21906;DHT22;11117;48.644;9.006;2023-02-10T15:06:30;6.30;83.50
21906;DHT22;11117;48.644;9.006;2023-02-10T15:11:30;6.20;83.90
21906;DHT22;11117;48.644;9.006;2023-02-10T15:13:56;6.20;83.50
21906;DHT22;11117;48.644;9.006;2023-02-10T15:16:22;6.20;83.90
21906;DHT22;11117;48.644;9.006;2023-02-10T15:18:48;6.20;85.90
21906;DHT22;11117;48.644;9.006;2023-02-10T15:21:32;6.20;86.30
21906;DHT22;11117;48.644;9.006;2023-02-10T15:23:58;6.30;86.20
21906;DHT22;11117;48.644;9.006;2023-02-10T15:26:26;6.20;86.40
21906;DHT22;11117;48.644;9.006;2023-02-10T15:29:22;6.20;87.00
21906;DHT22;11117;48.644;9.006;2023-02-10T15:31:53;6.10;86.90
21906;DHT22;11117;48.644;9.006;2023-02-10T15:36:48;6.10;87.40
21906;DHT22;11117;48.644;9.006;2023-02-10T15:39:27;6.10;88.30
21906;DHT22;11117;48.644;9.006;2023-02-10T15:47:11;6.10;90.80
21906;DHT22;11117;48.644;9.006;2023-02-10T15:49:39;6.10;90.60
21906;DHT22;11117;48.644;9.006;2023-02-10T15:52:09;6.10;91.00
21906;DHT22;11117;48.644;9.006;2023-02-10T15:54:35;6.00;91.20
21906;DHT22;11117;48.644;9.006;2023-02-10T15:57:10;6.00;91.50
21906;DHT22;11117;48.644;9.006;2023-02-10T15:59:36;5.90;91.60
21906;DHT22;11117;48.644;9.006;2023-02-10T16:02:07;5.80;91.80
21906;DHT22;11117;48.644;9.006;2023-02-10T16:04:35;5.80;94.20
21906;DHT22;11117;48.644;9.006;2023-02-10T16:07:02;5.70;94.70
21906;DHT22;11117;48.644;9.006;2023-02-10T16:09:29;5.70;94.70
21906;DHT22;11117;48.644;9.006;2023-02-10T16:11:55;5.60;93.50
21906;DHT22;11117;48.644;9.006;2023-02-10T16:14:20;5.50;93.10
21906;DHT22;11117;48.644;9.006;2023-02-10T16:16:51;5.40;93.30
21906;DHT22;11117;48.644;9.006;2023-02-10T16:19:17;5.30;93.10
21906;DHT22;11117;48.644;9.006;2023-02-10T16:21:43;5.20;92.90
21906;DHT22;11117;48.644;9.006;2023-02-10T16:24:14;5.10;92.90
21906;DHT22;11117;48.644;9.006;2023-02-10T16:26:40;5.10;93.10
21906;DHT22;11117;48.644;9.006;2023-02-10T16:29:08;5.00;93.80
21906;DHT22;11117;48.644;9.006;2023-02-10T16:31:34;4.80;93.70
21906;DHT22;11117;48.644;9.006;2023-02-10T16:34:00;4.80;94.10
21906;DHT22;11117;48.644;9.006;2023-02-10T16:36:25;4.70;94.30
21906;DHT22;11117;48.644;9.006;2023-02-10T16:38:51;4.60;94.50
21906;DHT22;11117;48.644;9.006;2023-02-10T16:41:17;4.40;94.80
21906;DHT22;11117;48.644;9.006;2023-02-10T16:43:42;4.40;94.70
21906;DHT22;11117;48.644;9.006;2023-02-10T16:46:11;4.30;95.20
21906;DHT22;11117;48.644;9.006;2023-02-10T16:48:39;4.20;95.40
21906;DHT22;11117;48.644;9.006;2023-02-10T16:51:04;4.10;95.70
21906;DHT22;11117;48.644;9.006;2023-02-10T16:53:30;4.10;95.80
21906;DHT22;11117;48.644;9.006;2023-02-10T16:55:55;4.00;95.70
21906;DHT22;11117;48.644;9.006;2023-02-10T16:58:21;3.90;95.90
21906;DHT22;11117;48.644;9.006;2023-02-10T17:00:47;3.90;96.30
21906;DHT22;11117;48.644;9.006;2023-02-10T17:03:12;3.80;96.70
21906;DHT22;11117;48.644;9.006;2023-02-10T17:05:38;3.80;96.40
21906;DHT22;11117;48.644;9.006;2023-02-10T17:08:04;3.70;96.00
21906;DHT22;11117;48.644;9.006;2023-02-10T17:10:30;3.60;95.90
21906;DHT22;11117;48.644;9.006;2023-02-10T17:12:56;3.60;96.10
21906;DHT22;11117;48.644;9.006;2023-02-10T17:15:22;3.50;96.30
21906;DHT22;11117;48.644;9.006;2023-02-10T17:17:48;3.50;96.20
21906;DHT22;11117;48.644;9.006;2023-02-10T17:20:21;3.50;96.40
21906;DHT22;11117;48.644;9.006;2023-02-10T17:22:47;3.40;96.60
21906;DHT22;11117;48.644;9.006;2023-02-10T17:25:13;3.40;96.50
21906;DHT22;11117;48.644;9.006;2023-02-10T17:27:39;3.30;96.70
21906;DHT22;11117;48.644;9.006;2023-02-10T17:30:05;3.30;97.10
21906;DHT22;11117;48.644;9.006;2023-02-10T17:32:30;3.30;97.20
21906;DHT22;11117;48.644;9.006;2023-02-10T17:34:56;3.20;97.20
21906;DHT22;11117;48.644;9.006;2023-02-10T17:37:21;3.20;97.10
21906;DHT22;11117;48.644;9.006;2023-02-10T17:39:47;3.20;97.20
21906;DHT22;11117;48.644;9.006;2023-02-10T17:42:13;3.10;97.30
21906;DHT22;11117;48.644;9.006;2023-02-10T17:44:38;3.10;97.50
21906;DHT22;11117;48.644;9.006;2023-02-10T17:47:04;3.00;97.60
21906;DHT22;11117;48.644;9.006;2023-02-10T17:49:31;3.00;97.70
21906;DHT22;11117;48.644;9.006;2023-02-10T17:51:58;3.00;98.00
21906;DHT22;11117;48.644;9.006;2023-02-10T17:54:24;2.90;98.30
21906;DHT22;11117;48.644;9.006;2023-02-10T17:56:50;2.70;98.20